Latest Weather Observations for Sydney Airport

IDN60801

Issued at 6:05 pm EST Thursday 24 April 2014 (issued every 30 minutes, with the page automatically refreshed every 10 minutes)

About weather observations | Map of weather stations | Latest weather observations for NSW | Other Formats
Station Details ID: 066037 Name: SYDNEY AIRPORT AMO Lat: -33.95 Lon: 151.17 Height: 6.0 m
Data from the previous 72 hours. | See also: Recent months at Sydney Airport
Date/Time
EST
Temp
°C
App
Temp
°C
Dew
Point
Rel
Hum
%
Delta-T
°C
Wind Press
QNH
hPa
Press
MSL
hPa
Rain
since 9 am
mm
Dir
 
Spd
km/h
Gust
km/h
Spd
kts
Gust
kts
24/06:00pm 22.7 22.3 14.2 58 5.0 E 9 9 5 5 1013.4 1013.4 0.0
24/05:30pm 24.2 22.4 12.1 46 6.9 ENE 13 15 7 8 1012.8 - 0.0
24/05:00pm 25.1 21.9 11.3 42 7.8 ESE 19 24 10 13 1012.2 1012.2 0.0
24/04:30pm 29.3 23.7 5.3 22 12.5 SSW 24 30 13 16 1011.7 - 0.0
24/04:00pm 29.9 24.9 3.8 19 13.3 WNW 19 28 10 15 1011.4 1011.4 0.0
24/03:30pm 29.9 24.7 3.8 19 13.3 WNW 20 28 11 15 1011.3 - 0.0
24/03:00pm 29.7 24.2 5.8 22 12.6 WNW 24 33 13 18 1011.1 1011.1 0.0
24/02:30pm 29.1 23.7 4.6 21 12.6 WNW 22 28 12 15 1011.1 - 0.0
24/02:00pm 28.6 25.6 7.7 26 11.3 WNW 13 17 7 9 1011.2 1011.2 0.0
24/01:30pm 28.3 25.6 7.2 26 11.3 W 11 17 6 9 1011.4 - 0.0
24/01:00pm 27.9 24.3 5.2 23 11.7 W 13 17 7 9 1011.6 1011.6 0.0
24/12:30pm 28.8 23.8 3.6 20 12.7 WNW 19 26 10 14 1011.7 - 0.0
24/12:00pm 28.3 23.8 4.4 21 12.2 WNW 17 22 9 12 1012.1 1012.1 0.0
24/11:30am 26.8 22.5 5.4 25 11.0 NW 17 22 9 12 1012.7 - 0.0
24/11:00am 25.8 21.6 5.5 27 10.4 NW 17 28 9 15 1013.0 1013.0 0.0
24/10:30am 24.9 21.3 6.6 31 9.5 NW 15 20 8 11 1013.2 - 0.0
24/10:00am 23.2 18.9 6.9 35 8.4 NW 19 24 10 13 1013.4 1013.4 0.0
24/09:30am 22.3 18.0 7.2 37 7.8 NW 19 22 10 12 1013.5 - 0.0
24/09:00am 20.9 16.9 8.3 44 6.6 NW 19 24 10 13 1013.6 1013.6 0.0
24/08:30am 19.3 15.9 9.0 51 5.4 NW 17 22 9 12 1013.7 - 0.0
24/08:00am 17.9 15.0 9.5 58 4.4 NW 15 19 8 10 1013.7 1013.7 0.0
24/07:30am 17.0 13.7 9.5 61 3.9 NNW 17 20 9 11 1013.4 - 0.0
24/07:00am 16.2 13.2 9.2 63 3.6 NW 15 20 8 11 1013.1 1013.1 0.0
24/06:30am 15.0 11.2 9.1 68 3.0 WNW 19 24 10 13 1013.0 - 0.0
24/06:00am 15.0 11.5 8.9 67 3.1 NW 17 19 9 10 1012.8 1012.8 0.0
24/05:30am 15.0 12.2 10.0 72 2.6 NNW 15 19 8 10 1012.5 - 0.0
24/05:00am 14.5 11.7 10.1 75 2.3 NNW 15 15 8 8 1012.8 1012.8 0.0
24/04:30am 15.0 12.1 9.8 71 2.7 NNW 15 17 8 9 1012.9 - 0.0
24/04:00am 14.5 12.2 10.3 76 2.2 WNW 13 17 7 9 1013.1 1013.1 0.0
24/03:30am 15.2 13.2 10.2 72 2.6 NNW 11 13 6 7 1012.9 - 0.0
24/03:00am 15.0 13.1 10.4 74 2.4 NW 11 13 6 7 1013.1 1013.1 0.0
24/02:30am 15.4 13.2 10.9 74 2.4 NW 13 15 7 8 1013.4 - 0.0
24/02:00am 15.9 13.9 11.4 74 2.4 NW 13 15 7 8 1013.8 1013.8 0.0
24/01:30am 16.2 14.4 12.0 76 2.3 WNW 13 15 7 8 1014.0 - 0.0
24/01:00am 17.4 15.4 11.5 68 3.2 NW 13 13 7 7 1014.1 1014.1 0.0
24/12:30am 17.6 16.0 11.5 67 3.3 NW 11 15 6 8 1014.3 - 0.0
24/12:00am 17.7 16.3 12.1 69 3.1 NNW 11 13 6 7 1014.5 1014.5 0.0
 
Date/Time
EST
Temp
°C
App
Temp
°C
Dew
Point
Rel
Hum
%
Delta-T
°C
Wind Press
QNH
hPa
Press
MSL
hPa
Rain
since 9 am
mm
Dir
 
Spd
km/h
Gust
km/h
Spd
kts
Gust
kts
23/11:30pm 18.2 16.1 12.4 69 3.2 WNW 15 17 8 9 1014.8 - 0.0
23/11:00pm 18.7 16.8 11.8 64 3.8 NNW 13 15 7 8 1014.7 1014.7 0.0
23/10:30pm 18.9 18.1 12.8 67 3.4 NNW 9 11 5 6 1015.0 - 0.0
23/10:00pm 18.8 18.4 12.9 68 3.3 N 7 9 4 5 1015.2 1015.2 0.0
23/09:30pm 19.0 18.8 13.0 68 3.4 N 6 7 3 4 1015.2 - 0.0
23/09:00pm 19.6 20.1 12.9 65 3.8 NNE 2 6 1 3 1015.3 1015.3 0.0
23/08:30pm 19.8 20.3 12.7 63 4.0 NW 2 6 1 3 1015.6 - 0.0
23/08:00pm 19.7 19.8 12.6 63 4.0 N 4 6 2 3 1015.7 1015.7 0.0
23/07:30pm 21.6 21.1 12.8 57 5.0 N 7 7 4 4 1015.6 - 0.0
23/07:00pm 21.4 20.9 12.6 57 5.0 NNE 7 9 4 5 1015.5 1015.5 0.0
23/06:30pm 21.9 21.0 12.6 55 5.3 N 9 13 5 7 1015.4 - 0.0
23/06:00pm 21.1 19.4 12.4 57 4.9 NNE 13 17 7 9 1014.9 1014.9 0.0
23/05:30pm 21.7 19.4 11.7 53 5.6 NE 15 17 8 9 1014.8 - 0.0
23/05:00pm 21.9 19.6 10.3 47 6.3 ENE 13 15 7 8 1014.7 1014.7 0.0
23/04:30pm 22.4 19.4 9.4 43 7.0 ENE 15 17 8 9 1014.7 - 0.0
23/04:00pm 23.2 19.9 9.5 41 7.4 E 17 19 9 10 1014.8 1014.8 0.0
23/03:30pm 23.6 21.3 10.6 44 7.2 SE 13 17 7 9 1014.7 - 0.0
23/03:00pm 23.3 21.5 10.9 45 6.9 SE 11 15 6 8 1014.8 1014.8 0.0
23/02:30pm 23.8 21.0 8.4 37 8.2 ESE 13 17 7 9 1014.8 - 0.0
23/02:00pm 23.4 20.7 9.1 40 7.7 SSE 13 17 7 9 1014.9 1014.9 0.0
23/01:30pm 23.9 21.2 7.2 34 8.7 SSE 11 13 6 7 1015.0 - 0.0
23/01:00pm 22.4 21.3 13.2 56 5.3 SSE 11 13 6 7 1015.4 1015.4 0.0
23/12:30pm 22.3 20.8 9.2 43 7.0 ESE 7 9 4 5 1015.8 - 0.0
23/12:00pm 22.4 22.0 9.8 44 6.8 ESE 2 9 1 5 1016.1 1016.1 0.0
23/11:30am 23.5 21.6 9.0 39 7.8 WSW 9 13 5 7 1016.4 - 0.0
23/11:00am 22.6 19.5 7.3 37 7.9 W 13 17 7 9 1016.8 1016.8 0.0
23/10:30am 23.3 19.4 7.1 35 8.4 WNW 17 26 9 14 1017.0 - 0.0
23/10:00am 21.0 17.0 6.5 39 7.3 NW 17 22 9 12 1017.1 1017.1 0.0
23/09:30am 19.9 16.6 6.5 41 6.7 NW 13 20 7 11 1017.5 - 0.0
23/09:00am 19.1 15.6 7.2 46 6.0 NW 15 20 8 11 1017.6 1017.6 0.0
23/08:30am 18.4 14.5 7.0 47 5.7 NW 17 20 9 11 1017.7 - 0.0
23/08:00am 17.1 13.8 8.0 55 4.6 NW 15 19 8 10 1017.6 1017.6 0.0
23/07:30am 15.5 12.3 8.4 62 3.6 NNW 15 19 8 10 1017.4 - 0.0
23/07:00am 14.9 11.8 8.8 67 3.1 NNW 15 19 8 10 1017.2 1017.2 0.0
23/06:30am 14.1 11.0 8.7 70 2.7 NW 15 19 8 10 1017.0 - 0.0
23/06:00am 13.8 10.9 8.2 69 2.8 NW 13 17 7 9 1016.8 1016.8 0.0
23/05:30am 14.1 10.7 7.8 66 3.1 NNW 15 17 8 9 1016.6 - 0.0
23/05:00am 14.1 11.2 8.1 67 3.0 NNW 13 17 7 9 1016.5 1016.5 0.0
23/04:30am 14.4 11.3 7.3 62 3.5 NW 13 17 7 9 1016.5 - 0.0
23/04:00am 14.2 11.3 8.0 66 3.1 NNW 13 17 7 9 1016.3 1016.3 0.0
23/03:30am 14.3 10.9 7.8 65 3.2 NNW 15 15 8 8 1016.2 - 0.0
23/03:00am 14.2 10.9 8.2 67 3.0 NNW 15 17 8 9 1016.3 1016.3 0.0
23/02:30am 14.6 12.1 8.2 65 3.2 NNW 11 15 6 8 1016.3 - 0.0
23/02:00am 14.8 12.5 9.1 68 2.9 NNW 11 13 6 7 1016.4 1016.4 0.0
23/01:30am 16.0 13.6 8.8 62 3.7 NNW 11 13 6 7 1016.5 - 0.0
23/01:00am 15.7 13.5 9.5 66 3.2 NW 11 13 6 7 1016.5 1016.5 0.0
23/12:30am 16.0 13.6 9.9 67 3.2 WNW 13 15 7 8 1016.4 - 0.0
23/12:00am 17.3 14.9 9.9 62 3.9 W 13 17 7 9 1016.5 1016.5 0.0
 
Date/Time
EST
Temp
°C
App
Temp
°C
Dew
Point
Rel
Hum
%
Delta-T
°C
Wind Press
QNH
hPa
Press
MSL
hPa
Rain
since 9 am
mm
Dir
 
Spd
km/h
Gust
km/h
Spd
kts
Gust
kts
22/11:30pm 17.7 15.3 9.9 60 4.1 W 13 13 7 7 1016.6 - 0.0
22/11:00pm 17.7 15.4 10.6 63 3.8 NW 13 17 7 9 1016.5 1016.5 0.0
22/10:30pm 19.1 16.8 10.3 56 4.7 NW 13 17 7 9 1016.7 - 0.0
22/10:00pm 18.6 16.0 10.8 60 4.2 W 15 24 8 13 1016.6 1016.6 0.0
22/09:30pm 19.5 16.8 10.4 55 4.9 NW 15 20 8 11 1016.6 - 0.0
22/09:00pm 19.6 17.2 10.1 54 5.1 NW 13 15 7 8 1016.4 1016.4 0.0
22/08:30pm 20.6 17.9 10.2 51 5.6 NW 15 19 8 10 1016.2 - 0.0
22/08:00pm 21.0 17.8 9.8 48 6.0 NNW 17 19 9 10 1016.2 1016.2 0.0
22/07:33pm 21.4 19.0 9.9 48 6.2 NNW 13 17 7 9 1015.9 - 0.0
22/07:30pm 21.6 19.1 9.7 46 6.4 NNW 13 15 7 8 1015.9 - 0.0
22/07:00pm 22.6 20.3 8.9 41 7.3 NNW 11 15 6 8 1015.7 1015.7 0.0
22/06:30pm 23.3 20.8 8.2 38 8.0 NNW 11 13 6 7 1015.5 - 0.0
22/06:00pm 23.4 20.1 8.0 37 8.1 NNW 15 17 8 9 1015.4 1015.4 0.0
22/05:30pm 23.8 20.4 7.6 35 8.5 NNW 15 17 8 9 1015.2 - 0.0
22/05:00pm 24.1 20.9 7.0 33 8.9 NNW 13 15 7 8 1015.1 1015.1 0.0
22/04:30pm 24.7 21.4 6.5 31 9.4 NW 13 15 7 8 1014.9 - 0.0
22/04:00pm 24.8 22.3 6.7 31 9.4 NW 9 13 5 7 1014.7 1014.7 0.0
22/03:30pm 24.3 21.4 6.7 32 9.1 NNW 11 15 6 8 1014.8 - 0.0
22/03:00pm 24.7 22.0 7.4 33 9.1 NW 11 15 6 8 1014.8 1014.8 0.0
22/02:30pm 24.2 21.2 7.7 34 8.7 NW 13 15 7 8 1014.8 - 0.0
22/02:00pm 24.4 21.5 8.0 35 8.7 NW 13 17 7 9 1015.1 1015.1 0.0
22/01:30pm 23.9 21.3 7.7 35 8.5 NW 11 17 6 9 1015.2 - 0.0
22/01:00pm 23.3 20.2 7.4 36 8.3 NW 13 17 7 9 1015.5 1015.5 0.0
22/12:30pm 23.2 19.8 7.5 36 8.2 NW 15 22 8 12 1016.0 - 0.0
22/12:00pm 22.4 18.3 7.8 39 7.6 NW 19 24 10 13 1016.5 1016.5 0.0
22/11:30am 21.8 18.3 8.8 43 6.9 NW 17 24 9 13 1017.1 - 0.0
22/11:00am 21.5 18.8 9.1 45 6.6 NW 13 17 7 9 1017.4 1017.4 0.0
22/10:30am 20.3 17.9 8.6 47 6.1 NW 11 15 6 8 1017.8 - 0.0
22/10:00am 19.1 16.9 9.2 52 5.2 WNW 11 17 6 9 1018.1 1018.1 0.0
22/09:30am 18.2 14.8 9.2 55 4.7 WNW 17 20 9 11 1018.7 - 0.0
22/09:00am 17.1 14.0 9.0 59 4.2 NW 15 20 8 11 1018.7 1018.7 0.0
22/08:30am 16.4 13.7 9.0 61 3.8 NW 13 15 7 8 1018.6 - 0.0
22/08:00am 15.6 12.9 8.9 64 3.4 NNW 13 17 7 9 1018.6 1018.6 0.0
22/07:30am 15.0 12.3 9.1 68 3.0 NNW 13 17 7 9 1018.8 - 0.0
22/07:00am 13.5 10.8 9.1 75 2.2 NW 13 19 7 10 1018.9 1018.9 0.0
22/06:30am 13.0 10.3 8.8 75 2.1 NW 13 17 7 9 1018.7 - 0.0
22/06:00am 13.0 9.5 8.6 74 2.2 NW 17 20 9 11 1018.7 1018.7 0.0
22/05:30am 13.4 10.2 8.6 73 2.4 NW 15 19 8 10 1018.7 - 0.0
22/05:00am 13.5 10.4 8.7 73 2.4 NW 15 17 8 9 1018.6 1018.6 0.0
22/04:30am 13.6 10.9 8.8 73 2.4 NW 13 15 7 8 1018.7 - 0.0
22/04:00am 13.2 10.5 9.0 75 2.1 NW 13 17 7 9 1018.7 1018.7 0.0
22/03:30am 13.1 10.5 9.3 78 1.9 NNW 13 15 7 8 1018.5 - 0.0
22/03:00am 13.6 10.5 9.0 74 2.3 NW 15 19 8 10 1018.7 1018.7 0.0
22/02:30am 13.7 10.7 9.2 74 2.3 NW 15 17 8 9 1018.9 - 0.0
22/02:00am 14.2 11.5 8.9 70 2.7 NW 13 17 7 9 1019.1 1019.1 0.0
22/01:30am 14.7 11.6 9.0 68 2.9 NW 15 19 8 10 1019.4 - 0.0
22/01:00am 15.0 12.4 9.3 68 2.9 N 13 15 7 8 1019.7 1019.7 0.0
22/12:30am 15.8 14.0 10.9 72 2.6 N 11 13 6 7 1019.8 - 0.0
22/12:00am 16.2 14.4 10.9 71 2.8 NNW 11 13 6 7 1019.8 1019.8 0.0
 
Date/Time
EST
Temp
°C
App
Temp
°C
Dew
Point
Rel
Hum
%
Delta-T
°C
Wind Press
QNH
hPa
Press
MSL
hPa
Rain
since 9 am
mm
Dir
 
Spd
km/h
Gust
km/h
Spd
kts
Gust
kts
21/11:30pm 16.7 15.0 11.1 69 3.0 N 11 13 6 7 1020.0 - 0.0
21/11:00pm 17.6 16.3 11.3 66 3.4 NNW 9 9 5 5 1020.1 1020.1 0.0
21/10:30pm 17.7 16.9 11.6 67 3.3 NW 7 11 4 6 1020.0 - 0.0
21/10:00pm 17.6 16.5 11.9 69 3.1 NW 9 13 5 7 1020.2 1020.2 0.0
21/09:30pm 18.2 16.2 11.6 65 3.6 NW 13 20 7 11 1020.2 - 0.0
21/09:00pm 18.3 16.9 12.1 67 3.4 WNW 11 13 6 7 1020.2 1020.2 0.0
21/08:30pm 18.9 17.9 12.2 65 3.7 NW 9 15 5 8 1020.1 - 0.0
21/08:00pm 18.9 18.1 12.8 67 3.4 NW 9 11 5 6 1020.0 1020.0 0.0
21/07:30pm 19.3 19.8 12.9 66 3.6 S 2 9 1 5 1020.0 - 0.0
21/07:00pm 18.8 20.0 13.7 72 2.9 CALM 0 0 0 0 1019.7 1019.7 0.0
21/06:30pm 19.0 19.1 13.9 72 2.9 S 6 9 3 5 1019.4 - 0.0

Other Formats:

Comma delimited format used in spreadsheet applications
http://www.bom.gov.au/fwo/IDN60801/IDN60801.94767.axf

JavaScript Object Notation format (JSON) in row-major order
http://www.bom.gov.au/fwo/IDN60801/IDN60801.94767.json